createdAt,value
2018-06-02T00:00:22.089Z,16.48
2018-06-02T00:02:49.471Z,13.95
2018-06-02T00:05:16.818Z,13.45
2018-06-02T00:07:44.470Z,13.82
2018-06-02T00:10:11.807Z,13.43
2018-06-02T00:12:39.165Z,15.98
2018-06-02T00:15:06.489Z,14.90
2018-06-02T00:17:33.880Z,15.93
2018-06-02T00:20:01.206Z,15.45
2018-06-02T00:22:28.577Z,17.35
2018-06-02T00:24:55.915Z,15.60
2018-06-02T00:27:23.227Z,16.85
2018-06-02T00:29:50.863Z,14.10
2018-06-02T00:32:18.422Z,15.63
2018-06-02T00:34:45.791Z,17.05
2018-06-02T00:37:13.172Z,17.33
2018-06-02T00:39:40.492Z,17.95
2018-06-02T00:42:07.821Z,15.65
2018-06-02T00:44:35.407Z,13.30
2018-06-02T00:47:02.757Z,14.27
2018-06-02T00:49:30.159Z,18.58
2018-06-02T00:51:57.474Z,17.37
2018-06-02T00:54:31.075Z,13.98
2018-06-02T00:56:58.471Z,15.77
2018-06-02T00:59:25.831Z,13.90
2018-06-02T01:01:53.446Z,14.87
2018-06-02T01:04:20.798Z,14.77
2018-06-02T01:06:48.199Z,14.82
2018-06-02T01:09:15.817Z,16.60
2018-06-02T01:11:48.182Z,14.52
2018-06-02T01:14:15.861Z,15.80
2018-06-02T01:16:43.230Z,17.98
2018-06-02T01:19:10.869Z,15.20
2018-06-02T01:21:38.534Z,14.43
2018-06-02T01:24:05.903Z,14.57
2018-06-02T01:26:33.210Z,14.00
2018-06-02T01:29:00.917Z,14.25
2018-06-02T01:31:28.280Z,15.82
2018-06-02T01:33:55.598Z,16.10
2018-06-02T01:36:22.963Z,15.57
2018-06-02T01:38:50.311Z,14.55
2018-06-02T01:41:17.667Z,14.13
2018-06-02T01:43:45.241Z,14.20
2018-06-02T01:46:12.550Z,13.77
2018-06-02T01:48:39.914Z,16.33
2018-06-02T01:51:07.619Z,14.07
2018-06-02T01:53:34.966Z,14.57
2018-06-02T01:56:02.344Z,15.15
2018-06-02T01:58:29.991Z,19.77
2018-06-02T02:00:57.598Z,14.90
2018-06-02T02:03:24.943Z,18.23
2018-06-02T02:05:52.570Z,19.70
2018-06-02T02:08:19.899Z,17.55
2018-06-02T02:10:47.263Z,16.02
2018-06-02T02:13:14.640Z,15.38
2018-06-02T02:15:41.949Z,14.90
2018-06-02T02:18:09.646Z,13.20
2018-06-02T02:20:37.309Z,17.45
2018-06-02T02:23:04.869Z,17.77
2018-06-02T02:25:32.534Z,14.90
2018-06-02T02:28:00.199Z,14.53
2018-06-02T02:30:27.522Z,15.70
2018-06-02T02:32:54.846Z,17.25
2018-06-02T02:35:22.471Z,16.33
2018-06-02T02:37:49.826Z,13.70
2018-06-02T02:40:17.215Z,14.32
2018-06-02T02:42:44.567Z,13.50
2018-06-02T02:45:11.894Z,17.27
2018-06-02T02:47:39.554Z,17.90
2018-06-02T02:50:06.890Z,14.25
2018-06-02T02:52:34.470Z,15.95
2018-06-02T02:55:01.802Z,16.00
2018-06-02T02:57:29.129Z,14.48
2018-06-02T02:59:56.734Z,16.60
2018-06-02T03:02:24.107Z,24.98
2018-06-02T03:04:51.459Z,14.97
2018-06-02T03:07:18.765Z,19.10
2018-06-02T03:09:46.164Z,19.33
2018-06-02T03:12:13.826Z,20.50
2018-06-02T03:14:41.215Z,19.27
2018-06-02T03:17:08.865Z,17.50
2018-06-02T03:19:36.206Z,18.50
2018-06-02T03:22:03.762Z,17.20
2018-06-02T03:24:31.427Z,23.95
2018-06-02T03:26:58.774Z,20.95
2018-06-02T03:29:26.109Z,20.53
2018-06-02T03:31:53.790Z,21.58
2018-06-02T03:34:21.455Z,17.45
2018-06-02T03:36:48.768Z,20.45
2018-06-02T03:39:16.102Z,16.83
2018-06-02T03:41:43.459Z,19.77
2018-06-02T03:44:10.799Z,19.42
2018-06-02T03:46:38.154Z,20.70
2018-06-02T03:49:05.555Z,19.83
2018-06-02T03:51:32.898Z,20.10
2018-06-02T03:54:00.497Z,15.60
2018-06-02T03:56:28.171Z,18.17
2018-06-02T03:58:55.497Z,23.48
2018-06-02T04:01:22.814Z,24.05
2018-06-02T04:03:50.198Z,24.27
2018-06-02T04:06:17.555Z,32.10
2018-06-02T04:08:45.143Z,19.65
2018-06-02T04:11:12.801Z,20.00
2018-06-02T04:13:40.142Z,19.30
2018-06-02T04:16:07.823Z,19.27
2018-06-02T04:18:35.154Z,24.63
2018-06-02T04:21:02.549Z,24.17
2018-06-02T04:23:29.937Z,22.05
2018-06-02T04:25:57.551Z,24.87
2018-06-02T04:28:24.886Z,23.70
2018-06-02T04:30:52.240Z,26.40
2018-06-02T04:33:20.201Z,29.15
2018-06-02T04:35:47.563Z,23.50
2018-06-02T04:38:14.888Z,26.45
2018-06-02T04:40:42.498Z,23.27
2018-06-02T04:43:09.847Z,31.05
2018-06-02T04:45:37.200Z,31.10
2018-06-02T04:48:04.579Z,24.50
2018-06-02T04:50:31.915Z,27.98
2018-06-02T04:52:59.262Z,23.58
2018-06-02T04:55:26.569Z,27.48
2018-06-02T04:57:54.189Z,29.63
2018-06-02T05:00:21.567Z,29.52
2018-06-02T05:02:48.952Z,30.60
2018-06-02T05:05:16.589Z,29.40
2018-06-02T05:07:44.233Z,32.50
2018-06-02T05:10:11.891Z,29.35
2018-06-02T05:12:39.255Z,37.50
2018-06-02T05:15:06.656Z,31.37
2018-06-02T05:17:34.267Z,29.02
2018-06-02T05:20:01.590Z,29.12
2018-06-02T05:22:29.283Z,27.50
2018-06-02T05:24:56.613Z,25.55
2018-06-02T05:27:23.960Z,28.77
2018-06-02T05:29:51.550Z,29.98
2018-06-02T05:32:18.890Z,27.65
2018-06-02T05:34:46.572Z,27.58
2018-06-02T05:37:13.898Z,33.40
2018-06-02T05:39:41.481Z,31.73
2018-06-02T05:42:08.845Z,37.60
2018-06-02T05:44:36.507Z,32.20
2018-06-02T05:47:03.862Z,34.47
2018-06-02T05:49:31.234Z,32.65
2018-06-02T05:51:58.878Z,32.80
2018-06-02T05:54:26.221Z,28.12
2018-06-02T05:56:53.584Z,28.70
2018-06-02T05:59:21.148Z,29.92
2018-06-02T06:01:48.504Z,34.85
2018-06-02T06:04:15.848Z,28.98
2018-06-02T06:06:43.203Z,38.13
2018-06-02T06:09:10.877Z,33.83
2018-06-02T06:11:38.533Z,29.83
2018-06-02T06:14:05.907Z,41.63
2018-06-02T06:16:33.257Z,37.38
2018-06-02T06:19:00.594Z,36.20
2018-06-02T06:21:27.950Z,35.95
2018-06-02T06:23:55.313Z,34.78
2018-06-02T06:26:22.679Z,35.15
2018-06-02T06:28:50.023Z,35.83
2018-06-02T06:31:17.395Z,30.37
2018-06-02T06:33:45.043Z,37.03
2018-06-02T06:36:12.387Z,32.17
2018-06-02T06:38:40.028Z,31.85
2018-06-02T06:41:07.381Z,36.67
2018-06-02T06:43:35.078Z,36.22
2018-06-02T06:48:53.170Z,38.63
2018-06-02T06:51:20.686Z,29.95
2018-06-02T06:53:48.240Z,32.80
2018-06-02T06:56:16.896Z,32.12
2018-06-02T06:58:44.238Z,31.02
2018-06-02T07:01:11.549Z,38.67
2018-06-02T07:03:38.828Z,30.42
2018-06-02T07:06:06.113Z,28.90
2018-06-02T07:08:33.408Z,31.80
2018-06-02T07:11:00.731Z,30.20
2018-06-02T07:13:28.062Z,31.23
2018-06-02T07:15:55.340Z,27.48
2018-06-02T07:18:22.722Z,31.23
2018-06-02T07:20:50.018Z,30.30
2018-06-02T07:23:17.633Z,29.37
2018-06-02T07:25:45.188Z,30.95
2018-06-02T07:28:13.624Z,33.20
2018-06-02T07:30:40.904Z,31.70
2018-06-02T07:33:08.212Z,28.40
2018-06-02T07:35:35.513Z,30.70
2018-06-02T07:38:02.841Z,29.08
2018-06-02T07:40:30.464Z,27.37
2018-06-02T07:42:58.020Z,32.40
2018-06-02T07:45:25.313Z,28.57
2018-06-02T07:47:52.630Z,25.90
2018-06-02T07:50:19.975Z,26.20
2018-06-02T07:52:47.537Z,24.00
2018-06-02T07:55:15.080Z,27.35
2018-06-02T07:57:42.470Z,21.70
2018-06-02T08:00:09.720Z,24.25
2018-06-02T08:02:37.044Z,27.77
2018-06-02T08:05:04.335Z,23.30
2018-06-02T08:07:31.645Z,25.60
2018-06-02T08:09:58.947Z,19.60
2018-06-02T08:12:26.584Z,23.00
2018-06-02T08:14:53.888Z,24.35
2018-06-02T08:17:21.500Z,23.75
2018-06-02T08:19:48.782Z,29.15
2018-06-02T08:22:16.106Z,22.20
2018-06-02T08:24:43.385Z,23.02
2018-06-02T08:27:10.689Z,23.00
2018-06-02T08:29:37.977Z,23.33
2018-06-02T08:32:05.298Z,22.43
2018-06-02T08:34:32.980Z,19.50
2018-06-02T08:37:00.265Z,18.20
2018-06-02T08:39:27.574Z,19.52
2018-06-02T08:41:54.886Z,20.02
2018-06-02T08:44:22.202Z,18.27
2018-06-02T08:46:49.761Z,24.73
2018-06-02T08:49:17.073Z,17.95
2018-06-02T08:51:44.406Z,18.80
2018-06-02T08:54:11.689Z,21.07
2018-06-02T08:56:39.284Z,19.60
2018-06-02T08:59:06.576Z,16.80
2018-06-02T09:01:34.137Z,19.17
2018-06-02T09:04:01.447Z,22.77
2018-06-02T09:06:28.733Z,17.87
2018-06-02T09:08:56.045Z,18.60
2018-06-02T09:11:23.337Z,19.30
2018-06-02T09:13:50.658Z,21.85
2018-06-02T09:16:17.962Z,14.73
2018-06-02T09:18:45.479Z,19.50
2018-06-02T09:21:12.809Z,18.30
2018-06-02T09:23:40.148Z,15.13
2018-06-02T09:26:07.521Z,15.43
2018-06-02T09:28:34.964Z,15.13
2018-06-02T09:31:02.560Z,18.73
2018-06-02T09:33:29.873Z,20.45
2018-06-02T09:35:57.181Z,20.25
2018-06-02T09:38:24.540Z,19.42
2018-06-02T09:40:51.884Z,14.90
2018-06-02T09:43:19.440Z,16.00
2018-06-02T09:45:47.001Z,14.27
2018-06-02T09:48:14.570Z,16.75
2018-06-02T09:50:41.881Z,14.32
2018-06-02T09:53:09.477Z,17.23
2018-06-02T09:55:36.814Z,16.60
2018-06-02T09:58:04.146Z,13.15
2018-06-02T10:00:31.554Z,14.48
2018-06-02T10:02:58.888Z,15.73
2018-06-02T10:05:26.209Z,14.40
2018-06-02T10:07:54.329Z,17.00
2018-06-02T10:12:49.359Z,21.77
2018-06-02T10:15:16.715Z,14.45
2018-06-02T10:17:44.083Z,18.30
2018-06-02T10:20:11.466Z,16.58
2018-06-02T10:22:38.819Z,17.17
2018-06-02T10:25:06.138Z,12.10
2018-06-02T10:27:33.464Z,19.37
2018-06-02T10:30:00.775Z,15.60
2018-06-02T10:32:28.085Z,14.80
2018-06-02T10:34:55.438Z,16.27
2018-06-02T10:37:22.786Z,9.20
2018-06-02T10:39:50.170Z,14.50
2018-06-02T10:42:17.512Z,13.47
2018-06-02T10:44:44.866Z,14.43
2018-06-02T10:47:12.230Z,12.77
2018-06-02T10:49:39.570Z,16.70
2018-06-02T10:52:06.882Z,12.83
2018-06-02T10:54:34.524Z,18.20
2018-06-02T10:57:01.870Z,15.85
2018-06-02T10:59:29.219Z,14.87
2018-06-02T11:01:56.554Z,14.87
2018-06-02T11:04:24.227Z,20.10
2018-06-02T11:06:51.890Z,16.40
2018-06-02T11:09:19.206Z,19.92
2018-06-02T11:11:46.540Z,23.05
2018-06-02T11:14:13.865Z,17.75
2018-06-02T11:16:41.207Z,17.27
2018-06-02T11:19:08.872Z,22.25
2018-06-02T11:21:36.215Z,20.77
2018-06-02T11:24:03.561Z,25.17
2018-06-02T11:26:30.899Z,26.52
2018-06-02T11:28:58.209Z,28.42
2018-06-02T11:31:25.571Z,28.23
2018-06-02T11:33:52.927Z,31.48
2018-06-02T11:36:20.273Z,33.15
2018-06-02T11:38:47.670Z,26.75
2018-06-02T11:41:15.098Z,31.67
2018-06-02T11:43:42.441Z,30.07
2018-06-02T11:46:09.774Z,28.70
2018-06-02T11:48:37.439Z,30.90
2018-06-02T11:51:04.998Z,32.53
2018-06-02T11:53:32.355Z,33.50
2018-06-02T11:55:59.725Z,35.13
2018-06-02T11:58:27.147Z,34.10
2018-06-02T12:00:54.855Z,30.75
2018-06-02T12:03:22.170Z,29.05
2018-06-02T12:05:49.527Z,31.55
2018-06-02T12:08:17.098Z,30.60
2018-06-02T12:10:44.690Z,32.90
2018-06-02T12:13:12.002Z,31.17
2018-06-02T12:15:39.673Z,27.65
2018-06-02T12:18:07.343Z,29.40
2018-06-02T12:20:34.756Z,29.95
2018-06-02T12:23:02.047Z,41.92
2018-06-02T12:25:29.367Z,32.65
2018-06-02T12:27:56.693Z,29.00
2018-06-02T12:30:24.023Z,31.62
2018-06-02T12:32:51.676Z,28.47
2018-06-02T12:35:19.256Z,29.20
2018-06-02T12:37:46.831Z,30.33
2018-06-02T12:40:14.266Z,31.43
2018-06-02T12:42:41.868Z,30.50
2018-06-02T12:45:09.197Z,27.50
2018-06-02T12:47:36.562Z,25.58
2018-06-02T12:50:04.187Z,26.50
2018-06-02T12:52:31.559Z,24.03
2018-06-02T12:54:59.315Z,24.58
2018-06-02T12:57:26.965Z,22.83
2018-06-02T12:59:54.301Z,24.70
2018-06-02T13:02:21.692Z,22.70
2018-06-02T13:04:49.010Z,21.40
2018-06-02T13:07:16.326Z,21.58
2018-06-02T13:09:43.666Z,23.10
2018-06-02T13:12:10.973Z,23.45
2018-06-02T13:14:38.339Z,24.87
2018-06-02T13:17:05.717Z,21.75
2018-06-02T13:19:33.088Z,22.50
2018-06-02T13:22:00.725Z,23.17
2018-06-02T13:24:28.038Z,20.10
2018-06-02T13:26:55.378Z,20.60
2018-06-02T13:29:22.746Z,23.60
2018-06-02T13:31:50.093Z,23.62
2018-06-02T13:34:17.439Z,21.92
2018-06-02T13:36:44.783Z,26.40
2018-06-02T13:39:12.102Z,22.92
2018-06-02T13:41:39.673Z,19.70
2018-06-02T13:44:07.027Z,21.23
2018-06-02T13:46:34.372Z,23.55
2018-06-02T13:49:01.708Z,23.58
2018-06-02T13:51:29.052Z,20.25
2018-06-02T13:53:56.650Z,17.35
2018-06-02T13:56:24.315Z,19.70
2018-06-02T13:58:51.874Z,18.62
2018-06-02T14:01:19.232Z,19.15
2018-06-02T14:03:46.571Z,17.30
2018-06-02T14:06:14.172Z,16.73
2018-06-02T14:08:41.527Z,21.43
2018-06-02T14:11:08.908Z,21.33
2018-06-02T14:13:36.458Z,17.83
2018-06-02T14:16:03.782Z,18.40
2018-06-02T14:18:31.111Z,16.98
2018-06-02T14:20:58.429Z,16.45
2018-06-02T14:23:25.787Z,19.58
2018-06-02T14:25:53.139Z,18.92
2018-06-02T14:28:20.754Z,21.42
2018-06-02T14:30:48.076Z,18.40
2018-06-02T14:33:15.397Z,22.73
2018-06-02T14:35:42.735Z,19.55
2018-06-02T14:38:10.188Z,22.25
2018-06-02T14:40:37.450Z,18.10
2018-06-02T14:43:04.795Z,22.85
2018-06-02T14:45:32.159Z,20.40
2018-06-02T14:47:59.511Z,21.00
2018-06-02T14:50:26.849Z,22.30
2018-06-02T14:52:54.511Z,21.47
2018-06-02T14:55:21.851Z,18.62
2018-06-02T14:57:49.192Z,25.42
2018-06-02T15:00:16.506Z,21.55
2018-06-02T15:02:43.879Z,23.60
2018-06-02T15:05:11.194Z,21.17
2018-06-02T15:07:38.515Z,23.02
2018-06-02T15:10:05.877Z,20.27
2018-06-02T15:12:33.231Z,20.80
2018-06-02T15:15:00.594Z,15.93
2018-06-02T15:17:27.956Z,22.23
2018-06-02T15:19:55.339Z,19.20
2018-06-02T15:22:22.704Z,18.55
2018-06-02T15:24:50.085Z,18.45
2018-06-02T15:27:17.415Z,20.80
2018-06-02T15:29:45.042Z,21.15
2018-06-02T15:32:12.707Z,23.58
2018-06-02T15:34:40.027Z,22.63
2018-06-02T15:37:07.405Z,20.63
2018-06-02T15:39:34.755Z,23.42
2018-06-02T15:42:02.139Z,20.20
2018-06-02T15:44:29.789Z,18.40
2018-06-02T15:46:57.251Z,19.90
2018-06-02T15:49:24.605Z,19.03
2018-06-02T15:51:51.975Z,22.60
2018-06-02T15:54:19.301Z,20.73
2018-06-02T15:56:46.703Z,21.12
2018-06-02T15:59:14.064Z,21.00
2018-06-02T16:01:41.631Z,25.95
2018-06-02T16:04:08.916Z,24.58
2018-06-02T16:06:36.576Z,25.52
2018-06-02T16:09:05.528Z,25.10
2018-06-02T16:11:33.323Z,25.05
2018-06-02T16:14:00.642Z,20.92
2018-06-02T16:16:27.930Z,26.95
2018-06-02T16:18:57.167Z,23.48
2018-06-02T16:21:24.486Z,20.80
2018-06-02T16:23:53.650Z,19.55
2018-06-02T16:26:21.001Z,24.60
2018-06-02T16:28:48.460Z,21.98
2018-06-02T16:31:16.096Z,22.37
2018-06-02T16:33:43.665Z,24.57
2018-06-02T16:36:11.079Z,24.37
2018-06-02T16:38:38.397Z,21.20
2018-06-02T16:41:06.067Z,22.13
2018-06-02T16:43:33.686Z,22.67
2018-06-02T16:46:01.118Z,23.42
2018-06-02T16:48:28.702Z,21.58
2018-06-02T16:50:57.005Z,19.12
2018-06-02T16:53:25.082Z,29.60
2018-06-02T16:55:52.485Z,20.50
2018-06-02T16:58:20.069Z,26.20
2018-06-02T17:00:47.494Z,26.48
2018-06-02T17:03:15.077Z,19.35
2018-06-02T17:05:42.741Z,20.08
2018-06-02T17:08:10.301Z,20.67
2018-06-02T17:10:37.600Z,23.40
2018-06-02T17:13:05.320Z,20.45
2018-06-02T17:15:32.678Z,21.40
2018-06-02T17:18:00.115Z,21.33
2018-06-02T17:20:27.701Z,21.30
2018-06-02T17:22:55.036Z,23.15
2018-06-02T17:25:22.440Z,22.30
2018-06-02T17:27:49.749Z,20.83
2018-06-02T17:30:17.102Z,21.20
2018-06-02T17:32:44.450Z,22.83
2018-06-02T17:35:12.038Z,21.90
2018-06-02T17:37:39.379Z,24.90
2018-06-02T17:40:06.751Z,27.37
2018-06-02T17:42:34.070Z,24.60
2018-06-02T17:45:01.663Z,23.27
2018-06-02T17:47:28.976Z,22.20
2018-06-02T17:49:56.293Z,22.70
2018-06-02T17:52:23.625Z,20.83
2018-06-02T17:54:50.941Z,20.70
2018-06-02T17:57:18.501Z,20.10
2018-06-02T17:59:45.864Z,21.07
2018-06-02T18:02:13.189Z,21.42
2018-06-02T18:04:40.518Z,25.08
2018-06-02T18:07:07.830Z,22.80
2018-06-02T18:09:35.200Z,27.75
2018-06-02T18:12:02.544Z,21.20
2018-06-02T18:14:30.133Z,22.30
2018-06-02T18:16:57.470Z,27.77
2018-06-02T18:19:25.040Z,22.87
2018-06-02T18:21:52.375Z,22.77
2018-06-02T18:24:19.964Z,23.35
2018-06-02T18:26:47.526Z,25.57
2018-06-02T18:29:14.879Z,27.98
2018-06-02T18:31:42.543Z,23.27
2018-06-02T18:34:09.890Z,22.27
2018-06-02T18:36:37.457Z,24.83
2018-06-02T18:39:05.560Z,23.45
2018-06-02T18:41:33.195Z,25.33
2018-06-02T18:44:00.514Z,24.40
2018-06-02T18:46:27.879Z,26.23
2018-06-02T18:48:55.194Z,24.50
2018-06-02T18:51:22.818Z,19.90
2018-06-02T18:53:50.146Z,20.60
2018-06-02T18:56:17.491Z,26.12
2018-06-02T18:58:44.863Z,23.38
2018-06-02T19:01:12.182Z,26.05
2018-06-02T19:03:39.797Z,22.77
2018-06-02T19:06:07.130Z,25.17
2018-06-02T19:08:34.467Z,24.50
2018-06-02T19:11:01.862Z,21.80
2018-06-02T19:13:29.522Z,26.10
2018-06-02T19:15:56.890Z,26.25
2018-06-02T19:18:24.438Z,28.65
2018-06-02T19:20:51.779Z,26.40
2018-06-02T19:23:19.120Z,26.37
2018-06-02T19:25:46.442Z,24.57
2018-06-02T19:28:14.079Z,26.12
2018-06-02T19:30:41.435Z,23.55
2018-06-02T19:33:09.021Z,32.10
2018-06-02T19:35:36.388Z,24.90
2018-06-02T19:38:03.735Z,27.67
2018-06-02T19:40:31.046Z,27.75
2018-06-02T19:42:58.755Z,25.37
2018-06-02T19:45:26.375Z,30.23
2018-06-02T19:47:53.744Z,25.20
2018-06-02T19:50:21.066Z,28.10
2018-06-02T19:52:48.386Z,27.47
2018-06-02T19:55:15.781Z,25.42
2018-06-02T19:57:43.091Z,29.80
2018-06-02T20:00:10.398Z,30.75
2018-06-02T20:02:37.725Z,29.87
2018-06-02T20:05:05.313Z,31.65
2018-06-02T20:07:32.876Z,29.90
2018-06-02T20:10:00.202Z,29.17
2018-06-02T20:12:27.790Z,26.05
2018-06-02T20:14:55.151Z,30.67
2018-06-02T20:17:22.479Z,26.58
2018-06-02T20:19:49.817Z,27.02
2018-06-02T20:22:17.426Z,31.20
2018-06-02T20:24:44.750Z,25.57
2018-06-02T20:27:12.118Z,30.60
2018-06-02T20:29:39.430Z,27.45
2018-06-02T20:32:07.038Z,33.80
2018-06-02T20:34:34.346Z,28.40
2018-06-02T20:37:01.669Z,34.07
2018-06-02T20:39:28.972Z,38.63
2018-06-02T20:41:56.273Z,32.63
2018-06-02T20:44:23.591Z,33.00
2018-06-02T20:46:50.926Z,33.50
2018-06-02T20:49:18.565Z,33.63
2018-06-02T20:51:47.194Z,32.63
2018-06-02T20:54:14.548Z,33.72
2018-06-02T20:56:42.947Z,30.50
2018-06-02T20:59:10.305Z,31.93
2018-06-02T21:01:37.627Z,35.10
2018-06-02T21:04:05.210Z,33.60
2018-06-02T21:06:32.505Z,35.97
2018-06-02T21:08:59.842Z,39.22
2018-06-02T21:11:27.134Z,33.50
2018-06-02T21:13:54.449Z,34.50
2018-06-02T21:16:21.801Z,33.28
2018-06-02T21:18:49.383Z,33.88
2018-06-02T21:21:16.709Z,34.17
2018-06-02T21:23:44.030Z,32.40
2018-06-02T21:26:11.338Z,31.70
2018-06-02T21:28:38.661Z,26.30
2018-06-02T21:31:05.949Z,29.70
2018-06-02T21:33:33.578Z,33.05
2018-06-02T21:36:01.100Z,27.77
2018-06-02T21:38:28.697Z,28.40
2018-06-02T21:40:56.251Z,27.95
2018-06-02T21:43:23.822Z,29.92
2018-06-02T21:45:51.555Z,30.27
2018-06-02T21:48:19.109Z,30.60
2018-06-02T21:50:46.769Z,31.33
2018-06-02T21:53:14.761Z,27.87
2018-06-02T21:55:42.438Z,28.97
2018-06-02T21:58:09.738Z,34.40
2018-06-02T22:00:37.046Z,37.22
2018-06-02T22:03:04.605Z,29.23
2018-06-02T22:05:31.931Z,32.77
2018-06-02T22:07:59.225Z,28.90
2018-06-02T22:10:26.877Z,31.25
2018-06-02T22:12:54.439Z,34.75
2018-06-02T22:15:21.738Z,33.30
2018-06-02T22:17:49.016Z,32.97
2018-06-02T22:20:16.346Z,36.17
2018-06-02T22:22:43.653Z,38.75
2018-06-02T22:25:10.981Z,33.83
2018-06-02T22:27:38.571Z,36.57
2018-06-02T22:30:06.126Z,33.63
2018-06-02T22:32:33.420Z,35.17
2018-06-02T22:35:00.712Z,35.20
2018-06-02T22:37:28.296Z,34.00
2018-06-02T22:39:55.601Z,32.53
2018-06-02T22:42:23.208Z,33.55
2018-06-02T22:44:50.874Z,37.55
2018-06-02T22:47:18.431Z,38.47
2018-06-02T22:49:45.830Z,36.27
2018-06-02T22:52:13.457Z,37.90
2018-06-02T22:54:40.766Z,35.13
2018-06-02T22:57:08.094Z,34.30
2018-06-02T22:59:35.414Z,34.57
2018-06-02T23:02:02.970Z,38.55
2018-06-02T23:04:30.078Z,38.58
2018-06-02T23:06:57.153Z,36.17
2018-06-02T23:09:24.534Z,37.35
2018-06-02T23:11:51.633Z,39.13
2018-06-02T23:14:18.785Z,43.08
2018-06-02T23:16:45.859Z,37.95
2018-06-02T23:19:13.237Z,35.67
2018-06-02T23:21:40.585Z,36.28
2018-06-02T23:24:07.940Z,39.90
2018-06-02T23:26:35.121Z,39.77
2018-06-02T23:29:02.241Z,40.20
2018-06-02T23:31:29.322Z,39.00
2018-06-02T23:33:56.413Z,39.15
2018-06-02T23:36:23.522Z,39.38
2018-06-02T23:38:50.662Z,39.72
2018-06-02T23:41:17.770Z,40.90
2018-06-02T23:43:45.146Z,38.80
2018-06-02T23:46:12.266Z,42.13
2018-06-02T23:48:39.584Z,40.53
2018-06-02T23:51:07.000Z,43.53
2018-06-02T23:53:34.113Z,44.95
2018-06-02T23:56:01.195Z,43.25
2018-06-02T23:58:28.306Z,43.13
